Montauk — 9HHE8 — position and weather

sailwx.info

Track history (hours):
 
Tides and Currents Weather Stations Pressure Air Temp Water Temp Dewpoint Dewpoint Depression Visibility Wind Speed Wind Dir Waves Ship Positions

Montauk

Last reported at 2018-Apr-25 21:45 UTC. Time now 2018-May-21 16:55 UTC.
Position N 05°58' E 001°14'.
Warning: this ship's position is 25 days out of date.

Length 106 m; draft 4.2 m.

Type: Tanker. MMSI: 215978000.

Date/timePositionNaut miles runAvg speedWind from/ knotsBaromVisibWave heightAir tempDewpointWater temp
2018-Apr-25 21:45N 05°58' E 001°14'0 0.1
2018-Apr-25 21:30N 05°58' E 001°14'1 1.6
2018-Apr-25 21:00N 05°57' E 001°14'2 3.2
2018-Apr-25 20:30N 05°57' E 001°15'0 0.4
2018-Apr-25 20:00N 05°57' E 001°15'1 1.6
2018-Apr-25 19:30N 05°57' E 001°16'3 5.7
2018-Apr-25 19:00N 06°00' E 001°16'3 5.7
2018-Apr-25 18:30N 06°03' E 001°16'2 0.2
2018-Apr-25 06:58N 06°05' E 001°16'0 0.0
2018-Apr-25 06:28N 06°05' E 001°16'0 0.0
2018-Apr-25 05:43N 06°05' E 001°16'0 0.0
2018-Apr-25 05:22N 06°05' E 001°16'0 0.0
2018-Apr-25 04:58N 06°05' E 001°16'0 0.0
2018-Apr-25 04:22N 06°05' E 001°16'0 0.0
2018-Apr-25 01:22N 06°05' E 001°16'0 0.0
2018-Apr-25 00:58N 06°05' E 001°16'0 0.0
2018-Apr-25 00:28N 06°05' E 001°16'  
Track history (hours):
 
Tides and Currents Weather Stations Pressure Air Temp Water Temp Dewpoint Dewpoint Depression Visibility Wind Speed Wind Dir Waves Ship Positions

Montauk

Last reported at 2018-Apr-25 21:45 UTC. Time now 2018-May-21 16:55 UTC.
Position N 05°58' E 001°14'.
Warning: this ship's position is 25 days out of date.

Length 106 m; draft 4.2 m.

Type: Tanker. MMSI: 215978000.

Date/timePositionNaut miles runAvg speedWind from/ knotsBaromVisibWave heightAir tempDewpointWater temp
2018-Apr-25 21:45N 05°58' E 001°14'0 0.1
2018-Apr-25 21:30N 05°58' E 001°14'1 1.6
2018-Apr-25 21:00N 05°57' E 001°14'2 3.2
2018-Apr-25 20:30N 05°57' E 001°15'0 0.4
2018-Apr-25 20:00N 05°57' E 001°15'1 1.6
2018-Apr-25 19:30N 05°57' E 001°16'3 5.7
2018-Apr-25 19:00N 06°00' E 001°16'3 5.7
2018-Apr-25 18:30N 06°03' E 001°16'2 0.2
2018-Apr-25 06:58N 06°05' E 001°16'0 0.0
2018-Apr-25 06:28N 06°05' E 001°16'0 0.0
2018-Apr-25 05:43N 06°05' E 001°16'0 0.0
2018-Apr-25 05:22N 06°05' E 001°16'0 0.0
2018-Apr-25 04:58N 06°05' E 001°16'0 0.0
2018-Apr-25 04:22N 06°05' E 001°16'0 0.0
2018-Apr-25 01:22N 06°05' E 001°16'0 0.0
2018-Apr-25 00:58N 06°05' E 001°16'0 0.0
2018-Apr-25 00:28N 06°05' E 001°16'  

Dump ship's entire track history